Main page
METAR-TAF:

METAR-TAF

Airports :

MoD Boscombe Down

Boscombe Down, England

latitude: 51-10N, longitude: 001-45W, elevation: 124 m

Current weather observation

The report was made 30 minutes ago, at 21:50 UTC
Wind 8 kt from the West/Southwest
Temperature 12°C
Humidity 88%
Pressure 1018 hPa
Visibility 10 km or more

METAR: EGDM 252150Z AUTO 24008KT 9999 NCD 12/10 Q1018

Time: 23:20 (22:20 UTC)

Forecast

The report was made 8 hours and 26 minutes ago, at 13:54 UTC
Forecast valid from 25 at 15 UTC to 25 at 18 UTC
Wind 13 kt from the West
Visibility 10 km or more
Few clouds at a height of 2000 ft
Probability 40% :
Temporary
from 25 at 15 UTC to 25 at 18 UTC
Wind 15 kt from the West with gusts up to 25 kt
Visibility: 7000 m
Scattered clouds at a height of 1800 ft
rain showers

TAF: EGDM 251354Z 2515/2518 27013KT 9999 FEW020 PROB40 TEMPO 2515/2518 28015G25KT 7000 SHRA SCT018

Weather observations and forecasts of more than 4000 airports (METAR and TAF reports).

The available stations are represented by yellow and red dots on the map.

Hover mouse over dot to see the name of the station.

Then click to see weather observations and forecasts.

To change the map : click on the green buttons with a black cross to zoom in, on the green button with a dash to zoom out, or on the green arrows for adjacent maps.


METAR-TAF: